sensor_id;sensor_type;location;lat;lon;timestamp;P1;durP1;ratioP1;P2;durP2;ratioP2
7487;SDS011;3785;52.260;4.728;2022-07-10T00:00:17;0.93;;;0.40;;
7487;SDS011;3785;52.260;4.728;2022-07-10T00:03:40;1.30;;;0.50;;
7487;SDS011;3785;52.260;4.728;2022-07-10T00:07:04;0.60;;;0.50;;
7487;SDS011;3785;52.260;4.728;2022-07-10T00:10:26;2.33;;;0.43;;
7487;SDS011;3785;52.260;4.728;2022-07-10T00:13:48;1.23;;;0.60;;
7487;SDS011;3785;52.260;4.728;2022-07-10T04:31:23;1.75;;;0.70;;
7487;SDS011;3785;52.260;4.728;2022-07-10T04:34:44;4.90;;;0.77;;
7487;SDS011;3785;52.260;4.728;2022-07-10T04:38:04;1.42;;;0.63;;
7487;SDS011;3785;52.260;4.728;2022-07-10T04:41:25;1.73;;;0.80;;
7487;SDS011;3785;52.260;4.728;2022-07-10T04:44:45;2.03;;;0.80;;
7487;SDS011;3785;52.260;4.728;2022-07-10T04:48:06;1.55;;;0.57;;
7487;SDS011;3785;52.260;4.728;2022-07-10T04:51:27;3.28;;;0.68;;
7487;SDS011;3785;52.260;4.728;2022-07-10T04:54:47;1.30;;;0.90;;
7487;SDS011;3785;52.260;4.728;2022-07-10T04:58:08;3.88;;;0.70;;
7487;SDS011;3785;52.260;4.728;2022-07-10T05:01:28;2.17;;;1.55;;
7487;SDS011;3785;52.260;4.728;2022-07-10T05:04:49;2.08;;;0.47;;
7487;SDS011;3785;52.260;4.728;2022-07-10T05:08:10;1.20;;;0.43;;
7487;SDS011;3785;52.260;4.728;2022-07-10T05:11:30;1.90;;;0.60;;
7487;SDS011;3785;52.260;4.728;2022-07-10T05:14:51;2.75;;;0.70;;
7487;SDS011;3785;52.260;4.728;2022-07-10T05:18:12;0.90;;;0.50;;
7487;SDS011;3785;52.260;4.728;2022-07-10T05:21:32;3.70;;;0.90;;
7487;SDS011;3785;52.260;4.728;2022-07-10T05:24:53;3.22;;;0.73;;
7487;SDS011;3785;52.260;4.728;2022-07-10T05:28:14;1.98;;;0.40;;
7487;SDS011;3785;52.260;4.728;2022-07-10T05:31:35;2.25;;;0.70;;
7487;SDS011;3785;52.260;4.728;2022-07-10T05:34:56;2.00;;;0.68;;
7487;SDS011;3785;52.260;4.728;2022-07-10T05:38:18;4.00;;;0.75;;
7487;SDS011;3785;52.260;4.728;2022-07-10T05:41:39;1.63;;;0.80;;
7487;SDS011;3785;52.260;4.728;2022-07-10T05:44:59;1.90;;;0.60;;
7487;SDS011;3785;52.260;4.728;2022-07-10T05:48:20;3.10;;;0.77;;
7487;SDS011;3785;52.260;4.728;2022-07-10T05:51:41;2.75;;;0.60;;
7487;SDS011;3785;52.260;4.728;2022-07-10T05:55:01;1.80;;;0.73;;
7487;SDS011;3785;52.260;4.728;2022-07-10T05:58:22;1.05;;;0.55;;
7487;SDS011;3785;52.260;4.728;2022-07-10T06:01:43;1.55;;;0.85;;
7487;SDS011;3785;52.260;4.728;2022-07-10T06:05:04;1.63;;;0.85;;
7487;SDS011;3785;52.260;4.728;2022-07-10T06:08:25;2.10;;;0.63;;
7487;SDS011;3785;52.260;4.728;2022-07-10T06:11:46;1.08;;;0.68;;
7487;SDS011;3785;52.260;4.728;2022-07-10T06:15:08;2.53;;;0.73;;
7487;SDS011;3785;52.260;4.728;2022-07-10T06:18:29;3.15;;;0.60;;
7487;SDS011;3785;52.260;4.728;2022-07-10T06:21:49;1.25;;;0.60;;
7487;SDS011;3785;52.260;4.728;2022-07-10T06:25:30;1.52;;;0.55;;
7487;SDS011;3785;52.260;4.728;2022-07-10T06:28:50;2.13;;;0.50;;
7487;SDS011;3785;52.260;4.728;2022-07-10T06:32:11;2.45;;;0.80;;
7487;SDS011;3785;52.260;4.728;2022-07-10T06:35:32;0.90;;;0.57;;
7487;SDS011;3785;52.260;4.728;2022-07-10T06:38:52;1.75;;;0.70;;
7487;SDS011;3785;52.260;4.728;2022-07-10T06:42:13;1.55;;;0.60;;
7487;SDS011;3785;52.260;4.728;2022-07-10T06:45:34;1.15;;;0.55;;
7487;SDS011;3785;52.260;4.728;2022-07-10T06:48:54;1.55;;;0.60;;
7487;SDS011;3785;52.260;4.728;2022-07-10T06:52:15;2.80;;;0.80;;
7487;SDS011;3785;52.260;4.728;2022-07-10T06:55:35;2.53;;;0.77;;
7487;SDS011;3785;52.260;4.728;2022-07-10T06:58:56;2.03;;;0.63;;
7487;SDS011;3785;52.260;4.728;2022-07-10T07:02:16;2.00;;;0.60;;
7487;SDS011;3785;52.260;4.728;2022-07-10T07:05:37;0.90;;;0.60;;
7487;SDS011;3785;52.260;4.728;2022-07-10T07:08:58;3.63;;;0.80;;
7487;SDS011;3785;52.260;4.728;2022-07-10T07:12:18;1.23;;;0.50;;
7487;SDS011;3785;52.260;4.728;2022-07-10T07:15:39;1.42;;;0.70;;
7487;SDS011;3785;52.260;4.728;2022-07-10T07:19:02;2.90;;;0.77;;
7487;SDS011;3785;52.260;4.728;2022-07-10T07:22:24;0.98;;;0.60;;
7487;SDS011;3785;52.260;4.728;2022-07-10T07:26:03;1.95;;;0.88;;
7487;SDS011;3785;52.260;4.728;2022-07-10T07:29:24;2.42;;;0.73;;
7487;SDS011;3785;52.260;4.728;2022-07-10T07:32:45;1.67;;;0.50;;
7487;SDS011;3785;52.260;4.728;2022-07-10T07:36:06;1.55;;;0.70;;
7487;SDS011;3785;52.260;4.728;2022-07-10T07:39:26;1.25;;;0.60;;
7487;SDS011;3785;52.260;4.728;2022-07-10T07:42:47;1.13;;;0.68;;
7487;SDS011;3785;52.260;4.728;2022-07-10T07:46:07;1.77;;;0.70;;
7487;SDS011;3785;52.260;4.728;2022-07-10T07:49:29;0.63;;;0.43;;
7487;SDS011;3785;52.260;4.728;2022-07-10T07:52:50;1.17;;;0.40;;
7487;SDS011;3785;52.260;4.728;2022-07-10T07:56:10;1.33;;;0.60;;
7487;SDS011;3785;52.260;4.728;2022-07-10T07:59:31;1.48;;;0.70;;
7487;SDS011;3785;52.260;4.728;2022-07-10T08:02:53;1.58;;;0.60;;
7487;SDS011;3785;52.260;4.728;2022-07-10T08:06:14;1.50;;;0.60;;
7487;SDS011;3785;52.260;4.728;2022-07-10T08:09:35;0.90;;;0.60;;
7487;SDS011;3785;52.260;4.728;2022-07-10T08:12:55;2.03;;;0.77;;
7487;SDS011;3785;52.260;4.728;2022-07-10T08:16:16;0.80;;;0.50;;
7487;SDS011;3785;52.260;4.728;2022-07-10T08:19:36;3.13;;;0.90;;
7487;SDS011;3785;52.260;4.728;2022-07-10T08:22:57;1.33;;;0.52;;
7487;SDS011;3785;52.260;4.728;2022-07-10T08:26:18;3.72;;;0.75;;
7487;SDS011;3785;52.260;4.728;2022-07-10T08:29:38;1.38;;;0.68;;
7487;SDS011;3785;52.260;4.728;2022-07-10T08:33:00;1.67;;;0.68;;
7487;SDS011;3785;52.260;4.728;2022-07-10T08:36:21;1.60;;;0.50;;
7487;SDS011;3785;52.260;4.728;2022-07-10T08:39:41;1.77;;;0.60;;
7487;SDS011;3785;52.260;4.728;2022-07-10T08:43:02;1.50;;;0.70;;
7487;SDS011;3785;52.260;4.728;2022-07-10T08:46:23;1.00;;;0.50;;
7487;SDS011;3785;52.260;4.728;2022-07-10T08:49:47;1.13;;;0.50;;
7487;SDS011;3785;52.260;4.728;2022-07-10T08:53:22;2.40;;;0.57;;
7487;SDS011;3785;52.260;4.728;2022-07-10T08:56:53;0.98;;;0.50;;
7487;SDS011;3785;52.260;4.728;2022-07-10T09:00:15;0.85;;;0.43;;
7487;SDS011;3785;52.260;4.728;2022-07-10T09:03:36;2.35;;;0.75;;
7487;SDS011;3785;52.260;4.728;2022-07-10T09:06:58;0.98;;;0.52;;
7487;SDS011;3785;52.260;4.728;2022-07-10T09:10:20;1.60;;;0.70;;
7487;SDS011;3785;52.260;4.728;2022-07-10T09:13:51;2.20;;;0.70;;
7487;SDS011;3785;52.260;4.728;2022-07-10T09:17:16;0.77;;;0.40;;
7487;SDS011;3785;52.260;4.728;2022-07-10T09:20:38;2.75;;;0.60;;
7487;SDS011;3785;52.260;4.728;2022-07-10T09:24:00;1.05;;;0.55;;
7487;SDS011;3785;52.260;4.728;2022-07-10T09:27:24;2.45;;;0.47;;
7487;SDS011;3785;52.260;4.728;2022-07-10T09:30:44;0.57;;;0.40;;
7487;SDS011;3785;52.260;4.728;2022-07-10T09:34:05;2.42;;;0.50;;
7487;SDS011;3785;52.260;4.728;2022-07-10T09:37:27;1.02;;;0.45;;
7487;SDS011;3785;52.260;4.728;2022-07-10T09:40:48;1.23;;;0.60;;
7487;SDS011;3785;52.260;4.728;2022-07-10T09:44:08;1.83;;;0.70;;
7487;SDS011;3785;52.260;4.728;2022-07-10T09:47:31;1.00;;;0.50;;
7487;SDS011;3785;52.260;4.728;2022-07-10T09:50:51;1.40;;;0.40;;
7487;SDS011;3785;52.260;4.728;2022-07-10T09:54:12;1.90;;;0.63;;
7487;SDS011;3785;52.260;4.728;2022-07-10T09:57:34;0.85;;;0.45;;
7487;SDS011;3785;52.260;4.728;2022-07-10T10:00:55;1.95;;;0.50;;
7487;SDS011;3785;52.260;4.728;2022-07-10T10:04:18;0.70;;;0.45;;
7487;SDS011;3785;52.260;4.728;2022-07-10T10:07:40;1.00;;;0.57;;
7487;SDS011;3785;52.260;4.728;2022-07-10T10:11:00;1.80;;;0.60;;
7487;SDS011;3785;52.260;4.728;2022-07-10T10:14:22;1.73;;;0.63;;
7487;SDS011;3785;52.260;4.728;2022-07-10T10:17:44;0.93;;;0.50;;
7487;SDS011;3785;52.260;4.728;2022-07-10T10:21:05;0.98;;;0.45;;
7487;SDS011;3785;52.260;4.728;2022-07-10T10:24:28;2.22;;;0.68;;
7487;SDS011;3785;52.260;4.728;2022-07-10T10:27:51;1.60;;;0.90;;
7487;SDS011;3785;52.260;4.728;2022-07-10T10:31:12;1.27;;;0.57;;
7487;SDS011;3785;52.260;4.728;2022-07-10T10:38:01;1.05;;;0.60;;
7487;SDS011;3785;52.260;4.728;2022-07-10T10:48:47;1.98;;;0.50;;
7487;SDS011;3785;52.260;4.728;2022-07-10T10:52:26;1.38;;;0.50;;
7487;SDS011;3785;52.260;4.728;2022-07-10T10:59:43;0.82;;;0.40;;
7487;SDS011;3785;52.260;4.728;2022-07-10T11:03:18;0.85;;;0.40;;
7487;SDS011;3785;52.260;4.728;2022-07-10T11:10:30;1.20;;;0.40;;
7487;SDS011;3785;52.260;4.728;2022-07-10T11:14:03;1.48;;;0.43;;
7487;SDS011;3785;52.260;4.728;2022-07-10T11:17:27;0.93;;;0.60;;
7487;SDS011;3785;52.260;4.728;2022-07-10T11:20:50;1.23;;;0.65;;
7487;SDS011;3785;52.260;4.728;2022-07-10T11:31:28;1.25;;;0.63;;
7487;SDS011;3785;52.260;4.728;2022-07-10T11:34:51;1.00;;;0.60;;
7487;SDS011;3785;52.260;4.728;2022-07-10T11:38:12;0.82;;;0.50;;
7487;SDS011;3785;52.260;4.728;2022-07-10T11:41:33;0.90;;;0.50;;
7487;SDS011;3785;52.260;4.728;2022-07-10T11:44:54;1.42;;;0.60;;
7487;SDS011;3785;52.260;4.728;2022-07-10T11:48:18;0.95;;;0.47;;
7487;SDS011;3785;52.260;4.728;2022-07-10T11:51:43;0.80;;;0.50;;
7487;SDS011;3785;52.260;4.728;2022-07-10T11:55:13;1.67;;;0.40;;
7487;SDS011;3785;52.260;4.728;2022-07-10T11:58:38;1.15;;;0.40;;
7487;SDS011;3785;52.260;4.728;2022-07-10T12:01:58;1.48;;;0.55;;
7487;SDS011;3785;52.260;4.728;2022-07-10T12:08:53;2.88;;;0.50;;
7487;SDS011;3785;52.260;4.728;2022-07-10T12:12:14;1.38;;;0.52;;
7487;SDS011;3785;52.260;4.728;2022-07-10T12:15:36;1.65;;;0.60;;
7487;SDS011;3785;52.260;4.728;2022-07-10T12:18:57;2.22;;;0.60;;
7487;SDS011;3785;52.260;4.728;2022-07-10T12:22:18;1.02;;;0.47;;
7487;SDS011;3785;52.260;4.728;2022-07-10T12:25:39;0.95;;;0.43;;
7487;SDS011;3785;52.260;4.728;2022-07-10T12:29:00;1.80;;;0.70;;
7487;SDS011;3785;52.260;4.728;2022-07-10T12:32:21;2.30;;;0.57;;
7487;SDS011;3785;52.260;4.728;2022-07-10T12:39:14;1.80;;;0.77;;
7487;SDS011;3785;52.260;4.728;2022-07-10T12:42:36;1.48;;;0.45;;
7487;SDS011;3785;52.260;4.728;2022-07-10T12:46:30;1.95;;;0.60;;
7487;SDS011;3785;52.260;4.728;2022-07-10T12:49:47;2.85;;;0.75;;
7487;SDS011;3785;52.260;4.728;2022-07-10T12:53:11;1.30;;;0.60;;
7487;SDS011;3785;52.260;4.728;2022-07-10T13:00:01;1.20;;;0.28;;
7487;SDS011;3785;52.260;4.728;2022-07-10T13:03:26;1.25;;;0.63;;
7487;SDS011;3785;52.260;4.728;2022-07-10T13:06:49;0.77;;;0.55;;
7487;SDS011;3785;52.260;4.728;2022-07-10T13:10:10;3.15;;;0.70;;
7487;SDS011;3785;52.260;4.728;2022-07-10T13:13:30;1.27;;;0.55;;
7487;SDS011;3785;52.260;4.728;2022-07-10T13:16:51;1.38;;;0.55;;
7487;SDS011;3785;52.260;4.728;2022-07-10T13:20:11;1.10;;;0.60;;
7487;SDS011;3785;52.260;4.728;2022-07-10T13:23:32;2.65;;;0.73;;
7487;SDS011;3785;52.260;4.728;2022-07-10T13:26:53;2.25;;;0.60;;
7487;SDS011;3785;52.260;4.728;2022-07-10T13:30:17;3.15;;;0.82;;
7487;SDS011;3785;52.260;4.728;2022-07-10T13:33:37;1.88;;;0.50;;
7487;SDS011;3785;52.260;4.728;2022-07-10T13:36:58;1.48;;;0.60;;
7487;SDS011;3785;52.260;4.728;2022-07-10T13:40:19;3.13;;;0.70;;
7487;SDS011;3785;52.260;4.728;2022-07-10T13:43:39;1.52;;;0.55;;
7487;SDS011;3785;52.260;4.728;2022-07-10T13:47:00;0.98;;;0.60;;
7487;SDS011;3785;52.260;4.728;2022-07-10T13:50:21;1.08;;;0.50;;
7487;SDS011;3785;52.260;4.728;2022-07-10T13:53:42;0.95;;;0.55;;
7487;SDS011;3785;52.260;4.728;2022-07-10T13:57:03;2.00;;;0.50;;
7487;SDS011;3785;52.260;4.728;2022-07-10T14:00:24;2.40;;;0.50;;
7487;SDS011;3785;52.260;4.728;2022-07-10T14:03:45;1.92;;;0.70;;
7487;SDS011;3785;52.260;4.728;2022-07-10T14:07:05;1.23;;;0.57;;
7487;SDS011;3785;52.260;4.728;2022-07-10T14:10:26;2.38;;;0.75;;
7487;SDS011;3785;52.260;4.728;2022-07-10T14:13:47;1.25;;;0.57;;
7487;SDS011;3785;52.260;4.728;2022-07-10T14:17:08;1.13;;;0.60;;
7487;SDS011;3785;52.260;4.728;2022-07-10T14:20:29;2.28;;;0.80;;
7487;SDS011;3785;52.260;4.728;2022-07-10T14:24:10;1.40;;;0.73;;
7487;SDS011;3785;52.260;4.728;2022-07-10T14:27:31;1.27;;;0.80;;
7487;SDS011;3785;52.260;4.728;2022-07-10T14:30:52;1.67;;;0.70;;
7487;SDS011;3785;52.260;4.728;2022-07-10T14:34:13;1.20;;;0.65;;
7487;SDS011;3785;52.260;4.728;2022-07-10T14:37:33;2.33;;;0.80;;
7487;SDS011;3785;52.260;4.728;2022-07-10T14:40:55;1.05;;;0.60;;
7487;SDS011;3785;52.260;4.728;2022-07-10T14:44:16;1.27;;;0.80;;
7487;SDS011;3785;52.260;4.728;2022-07-10T14:47:36;1.45;;;0.60;;
7487;SDS011;3785;52.260;4.728;2022-07-10T14:50:57;2.10;;;0.50;;
7487;SDS011;3785;52.260;4.728;2022-07-10T14:54:17;2.08;;;0.60;;
7487;SDS011;3785;52.260;4.728;2022-07-10T14:57:38;1.20;;;0.70;;
7487;SDS011;3785;52.260;4.728;2022-07-10T15:00:59;1.77;;;0.80;;
7487;SDS011;3785;52.260;4.728;2022-07-10T15:04:20;1.27;;;0.82;;
7487;SDS011;3785;52.260;4.728;2022-07-10T15:07:41;1.95;;;0.77;;
7487;SDS011;3785;52.260;4.728;2022-07-10T15:11:01;0.90;;;0.60;;
7487;SDS011;3785;52.260;4.728;2022-07-10T15:14:23;1.40;;;0.80;;
7487;SDS011;3785;52.260;4.728;2022-07-10T15:17:44;2.28;;;1.00;;
7487;SDS011;3785;52.260;4.728;2022-07-10T15:21:06;1.92;;;0.93;;
7487;SDS011;3785;52.260;4.728;2022-07-10T15:24:28;3.08;;;1.20;;
7487;SDS011;3785;52.260;4.728;2022-07-10T15:27:48;1.60;;;0.75;;
7487;SDS011;3785;52.260;4.728;2022-07-10T15:31:09;2.45;;;0.98;;
7487;SDS011;3785;52.260;4.728;2022-07-10T15:34:29;2.25;;;1.00;;
7487;SDS011;3785;52.260;4.728;2022-07-10T15:37:50;2.90;;;1.02;;
7487;SDS011;3785;52.260;4.728;2022-07-10T15:41:11;2.08;;;1.13;;
7487;SDS011;3785;52.260;4.728;2022-07-10T15:44:32;3.45;;;1.17;;
7487;SDS011;3785;52.260;4.728;2022-07-10T15:47:53;2.45;;;1.00;;
7487;SDS011;3785;52.260;4.728;2022-07-10T15:51:13;2.22;;;1.10;;
7487;SDS011;3785;52.260;4.728;2022-07-10T15:54:34;3.63;;;1.17;;
7487;SDS011;3785;52.260;4.728;2022-07-10T15:57:55;3.33;;;1.00;;
7487;SDS011;3785;52.260;4.728;2022-07-10T16:01:16;1.63;;;0.90;;
7487;SDS011;3785;52.260;4.728;2022-07-10T16:04:37;3.28;;;0.82;;
7487;SDS011;3785;52.260;4.728;2022-07-10T16:08:00;1.52;;;0.80;;
7487;SDS011;3785;52.260;4.728;2022-07-10T16:11:21;3.05;;;1.30;;
7487;SDS011;3785;52.260;4.728;2022-07-10T16:14:42;2.00;;;1.05;;
7487;SDS011;3785;52.260;4.728;2022-07-10T16:18:03;2.72;;;1.30;;
7487;SDS011;3785;52.260;4.728;2022-07-10T16:21:23;1.60;;;1.00;;
7487;SDS011;3785;52.260;4.728;2022-07-10T16:24:44;2.88;;;1.20;;
7487;SDS011;3785;52.260;4.728;2022-07-10T16:28:23;2.38;;;1.00;;
7487;SDS011;3785;52.260;4.728;2022-07-10T16:31:44;2.63;;;1.20;;
7487;SDS011;3785;52.260;4.728;2022-07-10T16:35:05;1.73;;;1.10;;
7487;SDS011;3785;52.260;4.728;2022-07-10T16:38:26;1.83;;;1.10;;
7487;SDS011;3785;52.260;4.728;2022-07-10T16:41:46;2.53;;;1.10;;
7487;SDS011;3785;52.260;4.728;2022-07-10T16:45:07;1.65;;;1.20;;
7487;SDS011;3785;52.260;4.728;2022-07-10T16:48:28;3.03;;;1.02;;
7487;SDS011;3785;52.260;4.728;2022-07-10T16:51:49;3.40;;;1.10;;
7487;SDS011;3785;52.260;4.728;2022-07-10T16:55:10;1.70;;;0.98;;
7487;SDS011;3785;52.260;4.728;2022-07-10T16:58:30;2.72;;;0.93;;
7487;SDS011;3785;52.260;4.728;2022-07-10T17:01:51;1.77;;;0.93;;
7487;SDS011;3785;52.260;4.728;2022-07-10T17:05:12;1.60;;;1.10;;
7487;SDS011;3785;52.260;4.728;2022-07-10T17:08:32;2.03;;;0.90;;
7487;SDS011;3785;52.260;4.728;2022-07-10T17:11:53;1.75;;;0.90;;
7487;SDS011;3785;52.260;4.728;2022-07-10T17:15:13;4.15;;;0.88;;
7487;SDS011;3785;52.260;4.728;2022-07-10T17:18:34;2.53;;;0.85;;
7487;SDS011;3785;52.260;4.728;2022-07-10T17:21:55;2.78;;;1.20;;
7487;SDS011;3785;52.260;4.728;2022-07-10T17:25:16;2.20;;;0.95;;
7487;SDS011;3785;52.260;4.728;2022-07-10T17:28:36;4.10;;;1.10;;
7487;SDS011;3785;52.260;4.728;2022-07-10T17:31:57;2.80;;;1.00;;
7487;SDS011;3785;52.260;4.728;2022-07-10T17:35:18;2.28;;;1.15;;
7487;SDS011;3785;52.260;4.728;2022-07-10T17:38:38;3.10;;;1.13;;
7487;SDS011;3785;52.260;4.728;2022-07-10T17:41:59;1.73;;;0.95;;
7487;SDS011;3785;52.260;4.728;2022-07-10T17:45:19;2.28;;;1.20;;
7487;SDS011;3785;52.260;4.728;2022-07-10T17:48:40;3.78;;;1.50;;
7487;SDS011;3785;52.260;4.728;2022-07-10T17:52:01;2.45;;;1.00;;
7487;SDS011;3785;52.260;4.728;2022-07-10T17:55:22;2.65;;;1.15;;
7487;SDS011;3785;52.260;4.728;2022-07-10T17:58:42;2.20;;;1.20;;
7487;SDS011;3785;52.260;4.728;2022-07-10T18:02:03;3.42;;;1.20;;
7487;SDS011;3785;52.260;4.728;2022-07-10T18:05:25;2.47;;;1.20;;
7487;SDS011;3785;52.260;4.728;2022-07-10T18:08:46;2.17;;;1.00;;
7487;SDS011;3785;52.260;4.728;2022-07-10T18:12:10;2.92;;;1.30;;
7487;SDS011;3785;52.260;4.728;2022-07-10T18:15:31;2.97;;;1.15;;
7487;SDS011;3785;52.260;4.728;2022-07-10T18:18:54;3.05;;;1.10;;
7487;SDS011;3785;52.260;4.728;2022-07-10T18:22:15;1.80;;;1.10;;
7487;SDS011;3785;52.260;4.728;2022-07-10T18:25:35;1.75;;;1.20;;
7487;SDS011;3785;52.260;4.728;2022-07-10T18:28:57;4.90;;;1.40;;
7487;SDS011;3785;52.260;4.728;2022-07-10T18:32:19;4.63;;;1.33;;
7487;SDS011;3785;52.260;4.728;2022-07-10T18:35:59;5.13;;;1.60;;
7487;SDS011;3785;52.260;4.728;2022-07-10T18:39:20;2.88;;;1.30;;
7487;SDS011;3785;52.260;4.728;2022-07-10T18:42:40;1.60;;;1.02;;
7487;SDS011;3785;52.260;4.728;2022-07-10T18:46:01;3.00;;;1.17;;
7487;SDS011;3785;52.260;4.728;2022-07-10T18:49:22;3.15;;;1.30;;
7487;SDS011;3785;52.260;4.728;2022-07-10T18:52:42;4.15;;;1.35;;
7487;SDS011;3785;52.260;4.728;2022-07-10T18:56:03;2.58;;;1.38;;
7487;SDS011;3785;52.260;4.728;2022-07-10T18:59:24;2.15;;;1.10;;
7487;SDS011;3785;52.260;4.728;2022-07-10T19:02:44;2.97;;;1.13;;
7487;SDS011;3785;52.260;4.728;2022-07-10T19:06:05;1.60;;;1.00;;
7487;SDS011;3785;52.260;4.728;2022-07-10T19:09:26;1.90;;;1.05;;
7487;SDS011;3785;52.260;4.728;2022-07-10T19:12:49;2.67;;;1.20;;
7487;SDS011;3785;52.260;4.728;2022-07-10T19:16:09;1.30;;;1.00;;
7487;SDS011;3785;52.260;4.728;2022-07-10T19:19:30;3.58;;;1.20;;
7487;SDS011;3785;52.260;4.728;2022-07-10T19:22:51;1.92;;;1.05;;
7487;SDS011;3785;52.260;4.728;2022-07-10T19:26:12;2.05;;;1.08;;
7487;SDS011;3785;52.260;4.728;2022-07-10T19:29:33;2.00;;;0.95;;
7487;SDS011;3785;52.260;4.728;2022-07-10T19:32:54;2.95;;;0.90;;
7487;SDS011;3785;52.260;4.728;2022-07-10T19:36:15;2.15;;;0.77;;
7487;SDS011;3785;52.260;4.728;2022-07-10T19:39:35;1.80;;;1.00;;
7487;SDS011;3785;52.260;4.728;2022-07-10T19:42:56;3.13;;;0.90;;
7487;SDS011;3785;52.260;4.728;2022-07-10T19:46:17;2.70;;;1.05;;
7487;SDS011;3785;52.260;4.728;2022-07-10T19:49:38;3.58;;;0.90;;
7487;SDS011;3785;52.260;4.728;2022-07-10T19:53:00;3.35;;;1.05;;
7487;SDS011;3785;52.260;4.728;2022-07-10T19:56:20;4.18;;;1.17;;
7487;SDS011;3785;52.260;4.728;2022-07-10T19:59:42;3.88;;;1.00;;
7487;SDS011;3785;52.260;4.728;2022-07-10T20:03:03;3.50;;;1.05;;
7487;SDS011;3785;52.260;4.728;2022-07-10T20:06:24;2.80;;;1.33;;
7487;SDS011;3785;52.260;4.728;2022-07-10T20:09:44;2.75;;;1.27;;
7487;SDS011;3785;52.260;4.728;2022-07-10T20:13:05;2.47;;;1.63;;
7487;SDS011;3785;52.260;4.728;2022-07-10T20:16:26;5.13;;;1.25;;
7487;SDS011;3785;52.260;4.728;2022-07-10T20:19:46;3.22;;;1.45;;
7487;SDS011;3785;52.260;4.728;2022-07-10T20:23:07;4.95;;;1.50;;
7487;SDS011;3785;52.260;4.728;2022-07-10T20:26:29;2.25;;;1.02;;
7487;SDS011;3785;52.260;4.728;2022-07-10T20:29:50;2.60;;;1.38;;
7487;SDS011;3785;52.260;4.728;2022-07-10T20:33:10;2.08;;;1.42;;
7487;SDS011;3785;52.260;4.728;2022-07-10T20:36:31;2.03;;;1.02;;
7487;SDS011;3785;52.260;4.728;2022-07-10T20:40:11;3.67;;;1.00;;
7487;SDS011;3785;52.260;4.728;2022-07-10T20:43:33;4.82;;;1.55;;
7487;SDS011;3785;52.260;4.728;2022-07-10T20:46:56;5.13;;;1.30;;
7487;SDS011;3785;52.260;4.728;2022-07-10T20:50:17;2.08;;;0.95;;
7487;SDS011;3785;52.260;4.728;2022-07-10T20:53:37;3.92;;;1.05;;
7487;SDS011;3785;52.260;4.728;2022-07-10T20:56:58;3.38;;;1.10;;
7487;SDS011;3785;52.260;4.728;2022-07-10T21:00:19;3.05;;;1.38;;
7487;SDS011;3785;52.260;4.728;2022-07-10T21:03:39;2.13;;;1.00;;
7487;SDS011;3785;52.260;4.728;2022-07-10T21:07:00;5.38;;;1.65;;
7487;SDS011;3785;52.260;4.728;2022-07-10T21:10:21;1.30;;;0.80;;
7487;SDS011;3785;52.260;4.728;2022-07-10T21:14:00;5.38;;;1.20;;
7487;SDS011;3785;52.260;4.728;2022-07-10T21:17:21;3.40;;;1.00;;
7487;SDS011;3785;52.260;4.728;2022-07-10T21:20:41;2.22;;;1.13;;
7487;SDS011;3785;52.260;4.728;2022-07-10T21:24:02;2.53;;;1.02;;
7487;SDS011;3785;52.260;4.728;2022-07-10T21:27:23;2.15;;;0.88;;
7487;SDS011;3785;52.260;4.728;2022-07-10T21:30:43;4.22;;;1.27;;
7487;SDS011;3785;52.260;4.728;2022-07-10T21:34:04;2.47;;;0.82;;
7487;SDS011;3785;52.260;4.728;2022-07-10T21:37:24;2.55;;;1.25;;
7487;SDS011;3785;52.260;4.728;2022-07-10T21:40:45;3.92;;;1.30;;
7487;SDS011;3785;52.260;4.728;2022-07-10T21:44:05;3.53;;;1.13;;
7487;SDS011;3785;52.260;4.728;2022-07-10T21:47:29;2.75;;;0.98;;
7487;SDS011;3785;52.260;4.728;2022-07-10T21:50:49;1.55;;;0.88;;
7487;SDS011;3785;52.260;4.728;2022-07-10T21:54:10;3.28;;;1.00;;
7487;SDS011;3785;52.260;4.728;2022-07-10T21:57:30;5.40;;;1.20;;
7487;SDS011;3785;52.260;4.728;2022-07-10T22:00:55;2.75;;;1.13;;
7487;SDS011;3785;52.260;4.728;2022-07-10T22:04:17;1.67;;;1.00;;
7487;SDS011;3785;52.260;4.728;2022-07-10T22:07:38;4.03;;;1.30;;
7487;SDS011;3785;52.260;4.728;2022-07-10T22:10:59;3.45;;;1.67;;
7487;SDS011;3785;52.260;4.728;2022-07-10T22:14:19;2.75;;;1.33;;
7487;SDS011;3785;52.260;4.728;2022-07-10T22:17:40;4.13;;;1.42;;
7487;SDS011;3785;52.260;4.728;2022-07-10T22:21:00;4.28;;;1.75;;
7487;SDS011;3785;52.260;4.728;2022-07-10T22:24:21;4.50;;;1.75;;
7487;SDS011;3785;52.260;4.728;2022-07-10T22:27:41;2.38;;;1.27;;
7487;SDS011;3785;52.260;4.728;2022-07-10T22:31:02;3.88;;;1.75;;
7487;SDS011;3785;52.260;4.728;2022-07-10T22:34:38;4.15;;;1.58;;
7487;SDS011;3785;52.260;4.728;2022-07-10T22:37:58;2.35;;;1.20;;
7487;SDS011;3785;52.260;4.728;2022-07-10T22:41:19;2.92;;;1.27;;
7487;SDS011;3785;52.260;4.728;2022-07-10T22:44:40;2.28;;;1.17;;
7487;SDS011;3785;52.260;4.728;2022-07-10T22:48:00;1.63;;;1.20;;
7487;SDS011;3785;52.260;4.728;2022-07-10T22:51:21;2.47;;;1.40;;
7487;SDS011;3785;52.260;4.728;2022-07-10T22:54:41;2.35;;;1.42;;
7487;SDS011;3785;52.260;4.728;2022-07-10T22:58:02;2.70;;;1.65;;
7487;SDS011;3785;52.260;4.728;2022-07-10T23:01:23;3.55;;;2.22;;
7487;SDS011;3785;52.260;4.728;2022-07-10T23:04:44;3.53;;;1.60;;
7487;SDS011;3785;52.260;4.728;2022-07-10T23:08:04;5.72;;;1.75;;
7487;SDS011;3785;52.260;4.728;2022-07-10T23:11:26;2.13;;;1.15;;
7487;SDS011;3785;52.260;4.728;2022-07-10T23:14:50;3.38;;;1.42;;
7487;SDS011;3785;52.260;4.728;2022-07-10T23:18:11;4.65;;;1.40;;
7487;SDS011;3785;52.260;4.728;2022-07-10T23:21:32;2.47;;;1.30;;
7487;SDS011;3785;52.260;4.728;2022-07-10T23:24:52;3.33;;;1.20;;
7487;SDS011;3785;52.260;4.728;2022-07-10T23:28:14;3.00;;;1.38;;
7487;SDS011;3785;52.260;4.728;2022-07-10T23:31:35;1.45;;;0.90;;
7487;SDS011;3785;52.260;4.728;2022-07-10T23:34:56;1.98;;;1.10;;
7487;SDS011;3785;52.260;4.728;2022-07-10T23:38:16;3.15;;;1.13;;
7487;SDS011;3785;52.260;4.728;2022-07-10T23:41:37;2.25;;;1.00;;
7487;SDS011;3785;52.260;4.728;2022-07-10T23:45:00;2.63;;;1.13;;
7487;SDS011;3785;52.260;4.728;2022-07-10T23:48:21;2.42;;;0.70;;
7487;SDS011;3785;52.260;4.728;2022-07-10T23:52:00;3.33;;;0.93;;
7487;SDS011;3785;52.260;4.728;2022-07-10T23:55:21;1.38;;;0.80;;
7487;SDS011;3785;52.260;4.728;2022-07-10T23:58:41;1.92;;;1.00;;
